Time;durP1;ratioP1;P1;durP2;ratioP2;P2;SDS_P1;SDS_P2;PMS_P1;PMS_P2;Temp;Humidity;BMP_temperature;BMP_pressure;BME280_temperature;BME280_humidity;BME280_pressure;Samples;Min_cycle;Max_cycle;Signal;HPM_P1;HPM_P2
2022/05/01 00:01:27;;;;;;;16.88;9.73;;;;;;;5.58;100.00;102252.91;5011100;28;20045;-79
2022/05/01 00:03:53;;;;;;;20.05;10.23;;;;;;;5.56;100.00;102266.00;5022361;28;20494;-79
2022/05/01 00:06:19;;;;;;;16.85;9.90;;;;;;;5.49;100.00;102258.56;4993421;28;20033;-79
2022/05/01 00:08:46;;;;;;;19.27;10.32;;;;;;;5.46;100.00;102263.00;5015180;28;20042;-78
2022/05/01 00:11:13;;;;;;;19.70;10.70;;;;;;;5.49;100.00;102262.00;4995602;28;20072;-79
2022/05/01 00:13:43;;;;;;;19.23;9.70;;;;;;;5.49;100.00;102255.97;5004489;28;20516;-77
2022/05/01 00:16:09;;;;;;;18.58;9.98;;;;;;;5.47;100.00;102256.03;4997881;28;20038;-76
2022/05/01 00:18:36;;;;;;;23.65;10.15;;;;;;;5.40;100.00;102252.88;4986913;28;20108;-82
2022/05/01 00:21:02;;;;;;;18.75;10.20;;;;;;;5.38;100.00;102246.91;4990420;28;20041;-79
2022/05/01 00:23:27;;;;;;;18.95;9.88;;;;;;;5.34;100.00;102239.34;4981975;28;20030;-78
2022/05/01 00:25:53;;;;;;;18.45;9.15;;;;;;;5.29;100.00;102241.31;4995913;28;20129;-81
2022/05/01 00:28:19;;;;;;;17.42;9.90;;;;;;;5.20;100.00;102232.22;5003202;28;20112;-82
2022/05/01 00:30:45;;;;;;;20.40;10.32;;;;;;;5.21;100.00;102234.72;5002993;28;20061;-79
2022/05/01 00:38:39;;;;;;;23.45;11.25;;;;;;;4.98;100.00;102225.44;5014512;28;20561;-83
2022/05/01 00:41:11;;;;;;;23.42;11.07;;;;;;;4.91;100.00;102226.66;4994041;28;20029;-85
2022/05/01 00:44:04;;;;;;;20.13;10.75;;;;;;;4.98;100.00;102238.47;5021057;28;20036;-81
2022/05/01 00:46:31;;;;;;;16.05;10.80;;;;;;;4.91;100.00;102231.84;5004646;28;20065;-83
2022/05/01 00:49:00;;;;;;;24.63;10.50;;;;;;;4.89;100.00;102241.50;5005672;28;20042;-79
2022/05/01 00:51:29;;;;;;;24.08;11.13;;;;;;;4.83;100.00;102237.44;4988347;28;20034;-82
2022/05/01 00:53:56;;;;;;;24.17;10.68;;;;;;;4.88;100.00;102238.06;5009422;28;20651;-82
2022/05/01 00:56:24;;;;;;;17.30;10.05;;;;;;;4.83;100.00;102244.38;4994513;28;20034;-82
2022/05/01 00:58:51;;;;;;;18.40;10.60;;;;;;;4.78;100.00;102235.97;4980345;28;20045;-79
2022/05/01 01:01:19;;;;;;;18.67;9.82;;;;;;;4.75;100.00;102236.97;4999458;28;20057;-81
2022/05/01 01:03:45;;;;;;;17.35;10.35;;;;;;;4.76;100.00;102250.78;5015809;28;20041;-81
2022/05/01 01:06:11;;;;;;;18.08;9.15;;;;;;;4.74;100.00;102245.66;5009066;28;20619;-82
2022/05/01 01:08:37;;;;;;;22.60;9.27;;;;;;;4.74;100.00;102248.25;5022092;28;20041;-82
2022/05/01 01:11:03;;;;;;;14.93;9.65;;;;;;;4.69;100.00;102245.06;4993013;28;20025;-82
2022/05/01 01:13:29;;;;;;;16.35;9.05;;;;;;;4.73;100.00;102246.59;5020620;28;20105;-80
2022/05/01 01:15:56;;;;;;;18.10;9.57;;;;;;;4.68;100.00;102246.78;5005108;28;20037;-82
2022/05/01 01:18:24;;;;;;;20.13;9.88;;;;;;;4.65;100.00;102254.75;4992846;28;21010;-83
2022/05/01 01:20:53;;;;;;;17.83;10.10;;;;;;;4.55;100.00;102248.28;5007898;28;20038;-85
2022/05/01 01:23:20;;;;;;;20.25;10.50;;;;;;;4.51;100.00;102243.28;4993415;28;20041;-81
2022/05/01 01:25:47;;;;;;;21.25;9.65;;;;;;;4.51;100.00;102251.09;5001332;28;20040;-81
2022/05/01 01:28:14;;;;;;;20.10;10.07;;;;;;;4.45;100.00;102247.00;4996332;28;20398;-81
2022/05/01 01:33:28;;;;;;;22.15;11.35;;;;;;;4.35;100.00;102248.31;5004880;28;20049;-83
2022/05/01 01:35:58;;;;;;;20.42;10.23;;;;;;;4.22;100.00;102259.28;4990319;28;20048;-82
2022/05/01 01:38:24;;;;;;;19.02;9.98;;;;;;;4.18;100.00;102249.09;5005021;28;20081;-81
2022/05/01 01:40:53;;;;;;;19.05;10.35;;;;;;;4.17;100.00;102258.63;5018424;28;20163;-84
2022/05/01 01:43:24;;;;;;;16.25;10.25;;;;;;;4.12;100.00;102252.78;4992049;28;20321;-81
2022/05/01 01:45:50;;;;;;;17.50;11.05;;;;;;;4.09;100.00;102251.19;4990938;28;20038;-83
2022/05/01 01:48:18;;;;;;;23.70;10.93;;;;;;;4.12;100.00;102257.16;4992462;28;20091;-84
2022/05/01 01:50:54;;;;;;;21.35;10.75;;;;;;;4.20;100.00;102258.50;4987476;28;20045;-83
2022/05/01 01:53:20;;;;;;;21.35;10.48;;;;;;;4.27;100.00;102259.06;5003205;28;20091;-81
2022/05/01 01:55:45;;;;;;;20.92;10.00;;;;;;;4.29;100.00;102249.44;5008541;28;20042;-84
2022/05/01 01:58:11;;;;;;;19.25;10.73;;;;;;;4.47;100.00;102265.97;4981243;28;20041;-81
2022/05/01 02:00:37;;;;;;;23.85;11.30;;;;;;;4.75;100.00;102262.13;5000786;28;20045;-80
2022/05/01 02:03:04;;;;;;;22.80;11.20;;;;;;;4.76;100.00;102262.03;5012283;28;20884;-80
2022/05/01 02:05:34;;;;;;;24.83;11.90;;;;;;;4.89;100.00;102257.09;4988612;28;20061;-79
2022/05/01 02:08:00;;;;;;;22.25;11.82;;;;;;;4.94;100.00;102278.53;5014251;28;20037;-79
2022/05/01 02:10:26;;;;;;;24.75;12.27;;;;;;;4.97;100.00;102256.72;4985417;28;20034;-83
2022/05/01 02:12:54;;;;;;;17.88;11.70;;;;;;;5.05;100.00;102255.47;4978274;28;20518;-82
2022/05/01 02:15:20;;;;;;;16.80;11.73;;;;;;;5.13;100.00;102264.66;4976645;28;20038;-82
2022/05/01 02:17:49;;;;;;;26.17;12.35;;;;;;;5.11;100.00;102248.28;4996497;28;20053;-82
2022/05/01 02:20:15;;;;;;;21.35;11.18;;;;;;;5.24;100.00;102254.56;4985282;28;20045;-83
2022/05/01 02:22:43;;;;;;;19.05;11.93;;;;;;;5.24;100.00;102263.22;4995741;28;20034;-81
2022/05/01 02:25:12;;;;;;;28.60;11.48;;;;;;;5.16;100.00;102233.28;4990471;28;20083;-84
2022/05/01 02:27:38;;;;;;;22.48;11.77;;;;;;;5.32;100.00;102259.41;4980459;28;20100;-82
2022/05/01 02:30:06;;;;;;;21.38;12.02;;;;;;;5.32;100.00;102255.03;4978953;28;20038;-83
2022/05/01 02:32:31;;;;;;;18.42;10.98;;;;;;;5.32;100.00;102249.81;5000595;28;20050;-83
2022/05/01 02:34:57;;;;;;;17.58;11.75;;;;;;;5.21;100.00;102242.53;5000979;28;20040;-81
2022/05/01 02:37:23;;;;;;;23.13;11.95;;;;;;;5.31;100.00;102248.13;4996225;28;20034;-80
2022/05/01 02:39:48;;;;;;;25.33;12.02;;;;;;;5.32;100.00;102244.63;4977935;28;20065;-80
2022/05/01 02:42:14;;;;;;;18.25;11.50;;;;;;;5.35;100.00;102261.84;4998600;28;20057;-81
2022/05/01 02:44:40;;;;;;;19.80;11.35;;;;;;;5.39;100.00;102260.78;4995887;28;20031;-80
2022/05/01 02:47:06;;;;;;;19.10;11.43;;;;;;;5.43;100.00;102260.53;4991931;28;20069;-80
2022/05/01 02:49:34;;;;;;;22.23;12.15;;;;;;;5.44;100.00;102262.25;5008794;28;20084;-80
2022/05/01 02:51:59;;;;;;;23.05;11.68;;;;;;;5.56;100.00;102247.78;4976930;28;20045;-79
2022/05/01 02:54:25;;;;;;;22.63;12.07;;;;;;;5.57;100.00;102259.00;4979380;28;20462;-80
2022/05/01 02:56:52;;;;;;;22.33;11.68;;;;;;;5.56;100.00;102250.38;4998722;28;20096;-80
2022/05/01 02:59:18;;;;;;;20.88;10.57;;;;;;;5.59;100.00;102244.16;5015021;28;20026;-80
2022/05/01 03:01:44;;;;;;;20.25;10.52;;;;;;;5.67;100.00;102242.03;4987797;28;20038;-80
2022/05/01 03:04:10;;;;;;;21.63;10.75;;;;;;;5.73;100.00;102238.28;4980067;28;20037;-80
2022/05/01 03:06:36;;;;;;;21.45;10.18;;;;;;;5.80;100.00;102250.91;4982224;28;20655;-80
2022/05/01 03:09:03;;;;;;;19.95;10.13;;;;;;;5.83;100.00;102257.69;4999619;28;20033;-79
2022/05/01 03:11:29;;;;;;;24.45;10.15;;;;;;;5.82;100.00;102250.78;4996098;28;20026;-83
2022/05/01 03:13:55;;;;;;;20.73;9.43;;;;;;;5.75;100.00;102244.25;4987694;28;20036;-80
2022/05/01 03:16:20;;;;;;;22.23;9.15;;;;;;;5.87;100.00;102254.00;4992694;28;20061;-79
2022/05/01 03:24:18;;;;;;;20.65;8.63;;;;;;;5.88;100.00;102247.03;4998191;28;20494;-80
2022/05/01 03:26:43;;;;;;;16.88;8.50;;;;;;;5.91;100.00;102250.31;5012734;28;20443;-79
2022/05/01 03:29:10;;;;;;;17.48;9.23;;;;;;;5.87;100.00;102247.97;4977770;28;20034;-80
2022/05/01 03:31:37;;;;;;;17.42;9.07;;;;;;;5.88;100.00;102244.44;4995588;28;20117;-77
2022/05/01 03:34:04;;;;;;;16.38;8.20;;;;;;;5.92;100.00;102253.78;5014607;28;20036;-78
2022/05/01 03:36:30;;;;;;;13.75;8.07;;;;;;;5.95;100.00;102246.69;4983894;28;20204;-84
2022/05/01 03:38:56;;;;;;;22.52;8.45;;;;;;;5.92;100.00;102240.78;5016107;28;20499;-84
2022/05/01 03:41:22;;;;;;;19.17;7.43;;;;;;;5.94;100.00;102241.53;5002640;28;20030;-82
2022/05/01 03:43:48;;;;;;;16.75;7.90;;;;;;;5.88;100.00;102242.69;4995138;28;20454;-83
2022/05/01 03:46:13;;;;;;;19.83;8.20;;;;;;;5.83;100.00;102242.06;4990641;28;20046;-84
2022/05/01 03:48:39;;;;;;;22.13;7.97;;;;;;;5.87;100.00;102240.16;4972650;28;20042;-82
2022/05/01 03:51:05;;;;;;;12.30;6.63;;;;;;;5.80;100.00;102235.28;4994533;28;20482;-83
2022/05/01 03:53:31;;;;;;;13.00;6.72;;;;;;;6.04;100.00;102242.75;4987743;28;20048;-82
2022/05/01 03:55:57;;;;;;;17.38;6.78;;;;;;;5.98;100.00;102237.88;4999304;28;20124;-82
2022/05/01 03:58:23;;;;;;;19.58;6.85;;;;;;;5.95;100.00;102243.19;4994682;28;20469;-79
2022/05/01 04:00:49;;;;;;;15.75;6.82;;;;;;;5.99;100.00;102249.97;4995037;28;20504;-79
2022/05/01 04:03:15;;;;;;;15.07;6.45;;;;;;;5.98;100.00;102249.13;4995494;28;20088;-79
2022/05/01 04:05:41;;;;;;;18.65;6.93;;;;;;;6.02;100.00;102249.81;5007432;28;20022;-79
2022/05/01 04:08:08;;;;;;;19.08;6.20;;;;;;;5.97;100.00;102233.56;4976418;28;20037;-79
2022/05/01 04:10:41;;;;;;;15.30;5.70;;;;;;;6.10;100.00;102250.25;5012616;28;20018;-79
2022/05/01 04:13:08;;;;;;;24.52;6.78;;;;;;;6.15;100.00;102256.06;4993564;28;20040;-78
2022/05/01 04:15:36;;;;;;;15.65;5.97;;;;;;;6.17;100.00;102245.56;4999416;28;20201;-78
2022/05/01 04:18:03;;;;;;;15.52;6.43;;;;;;;6.31;100.00;102247.44;5010206;28;20072;-79
2022/05/01 04:20:29;;;;;;;12.35;6.20;;;;;;;6.33;100.00;102245.56;4991878;28;20034;-79
2022/05/01 04:22:56;;;;;;;11.02;5.38;;;;;;;6.24;100.00;102249.53;4999132;28;20446;-80
2022/05/01 04:25:24;;;;;;;20.33;6.35;;;;;;;6.29;100.00;102244.06;5011265;28;20056;-79
2022/05/01 04:27:51;;;;;;;15.57;6.03;;;;;;;6.31;100.00;102245.69;5000005;28;20086;-79
2022/05/01 04:30:18;;;;;;;15.55;5.90;;;;;;;6.30;100.00;102246.59;5010807;28;20038;-79
2022/05/01 04:32:57;;;;;;;12.52;6.28;;;;;;;6.32;100.00;102249.13;5000263;28;20099;-79
2022/05/01 04:35:25;;;;;;;14.98;5.70;;;;;;;6.33;100.00;102267.28;4982902;28;20559;-79
2022/05/01 04:37:52;;;;;;;15.15;5.55;;;;;;;6.29;100.00;102257.09;4996904;28;20092;-79
2022/05/01 04:40:19;;;;;;;11.20;5.40;;;;;;;6.49;100.00;102258.66;5012692;28;20045;-79
2022/05/01 04:42:45;;;;;;;9.57;5.22;;;;;;;6.47;100.00;102260.50;4995804;28;20103;-78
2022/05/01 04:45:11;;;;;;;11.50;5.80;;;;;;;6.46;100.00;102264.88;4981319;28;20046;-79
2022/05/01 04:47:38;;;;;;;12.93;5.25;;;;;;;6.49;100.00;102258.66;5001646;28;20508;-80
2022/05/01 04:50:04;;;;;;;14.77;5.18;;;;;;;6.49;100.00;102259.47;4999388;28;20029;-79
2022/05/01 04:52:30;;;;;;;16.55;5.60;;;;;;;6.47;100.00;102258.72;4999586;28;20033;-79
2022/05/01 04:54:56;;;;;;;14.13;5.38;;;;;;;6.47;100.00;102263.94;4997735;28;20038;-79
2022/05/01 04:57:21;;;;;;;13.02;5.55;;;;;;;6.35;100.00;102247.19;4981604;28;20034;-79
2022/05/01 04:59:48;;;;;;;12.40;5.00;;;;;;;6.37;100.00;102268.81;5023012;28;20037;-79
2022/05/01 05:02:14;;;;;;;12.43;5.50;;;;;;;6.29;100.00;102268.38;5010428;28;20029;-80
2022/05/01 05:04:40;;;;;;;13.23;5.40;;;;;;;6.23;100.00;102266.06;5001337;28;20092;-80
2022/05/01 05:07:06;;;;;;;13.50;5.25;;;;;;;6.19;100.00;102264.56;5010246;28;20045;-79
2022/05/01 05:12:17;;;;;;;15.98;5.60;;;;;;;6.00;100.00;102264.69;5029377;28;20033;-80
2022/05/01 05:14:43;;;;;;;16.75;5.63;;;;;;;5.87;100.00;102258.38;5017769;28;20091;-79
2022/05/01 05:17:10;;;;;;;15.02;5.35;;;;;;;5.92;100.00;102267.66;5025181;28;20038;-79
2022/05/01 05:19:36;;;;;;;10.40;5.40;;;;;;;5.89;100.00;102269.56;5013012;28;20090;-80
2022/05/01 05:22:03;;;;;;;11.18;5.25;;;;;;;5.95;100.00;102267.53;5039938;28;20034;-80
2022/05/01 05:24:29;;;;;;;13.98;5.28;;;;;;;6.01;100.00;102279.41;5019975;28;20061;-79
2022/05/01 05:26:55;;;;;;;11.90;5.25;;;;;;;6.08;100.00;102269.50;5013907;28;20048;-79
2022/05/01 05:29:21;;;;;;;18.60;5.35;;;;;;;6.19;100.00;102274.97;5003155;28;20061;-80
2022/05/01 05:31:46;;;;;;;11.50;5.20;;;;;;;6.34;100.00;102271.56;5001989;28;20091;-80
2022/05/01 05:34:12;;;;;;;17.23;5.32;;;;;;;6.49;100.00;102258.66;5027965;28;20064;-80
2022/05/01 05:36:37;;;;;;;13.43;5.13;;;;;;;6.72;100.00;102273.03;5031035;28;20033;-78
2022/05/01 05:39:03;;;;;;;12.32;4.85;;;;;;;6.69;100.00;102265.41;5029712;28;20060;-77
2022/05/01 05:41:29;;;;;;;9.73;4.78;;;;;;;6.88;100.00;102273.88;5026505;28;20044;-79
2022/05/01 05:43:55;;;;;;;13.90;4.85;;;;;;;7.03;100.00;102277.41;5010264;28;22074;-78
2022/05/01 05:46:20;;;;;;;11.77;4.75;;;;;;;7.20;100.00;102274.69;5030702;28;20037;-79
2022/05/01 05:48:46;;;;;;;19.70;4.55;;;;;;;7.14;100.00;102269.81;5026184;28;20045;-80
2022/05/01 05:51:12;;;;;;;10.65;4.25;;;;;;;7.28;100.00;102286.47;5007898;28;20029;-81
2022/05/01 05:53:37;;;;;;;13.18;4.40;;;;;;;7.43;100.00;102285.56;5008614;28;20091;-80
2022/05/01 05:56:03;;;;;;;15.35;4.63;;;;;;;7.36;100.00;102276.41;4994187;28;20059;-80
2022/05/01 05:58:29;;;;;;;14.50;4.53;;;;;;;7.49;100.00;102285.22;5022432;28;20104;-79
2022/05/01 06:00:57;;;;;;;10.60;4.30;;;;;;;7.66;100.00;102283.41;5026475;28;20038;-77
2022/05/01 06:03:22;;;;;;;10.88;4.15;;;;;;;7.67;100.00;102282.50;5011291;28;20068;-81
2022/05/01 06:05:48;;;;;;;12.23;3.97;;;;;;;7.77;100.00;102276.59;5006166;28;20691;-82
2022/05/01 06:08:15;;;;;;;8.07;3.50;;;;;;;7.92;100.00;102290.53;5007338;28;20053;-80
2022/05/01 06:10:41;;;;;;;14.23;4.40;;;;;;;7.82;100.00;102283.31;5007656;28;20034;-81
2022/05/01 06:13:07;;;;;;;13.15;4.28;;;;;;;7.81;100.00;102282.50;5001401;28;20635;-80
2022/05/01 06:15:32;;;;;;;19.85;4.30;;;;;;;8.05;100.00;102297.66;5020594;28;20025;-84
2022/05/01 06:17:58;;;;;;;7.78;3.60;;;;;;;8.22;100.00;102296.63;5007075;28;20558;-81
2022/05/01 06:20:24;;;;;;;13.27;3.38;;;;;;;8.35;100.00;102289.72;5027102;28;20042;-78
2022/05/01 06:22:50;;;;;;;8.75;3.60;;;;;;;8.40;100.00;102298.13;5007284;28;20132;-83
2022/05/01 06:25:16;;;;;;;8.00;3.45;;;;;;;8.46;100.00;102289.94;5006229;28;20368;-81
2022/05/01 06:27:42;;;;;;;11.38;3.42;;;;;;;8.51;100.00;102294.88;5016325;28;20045;-80
2022/05/01 06:30:11;;;;;;;11.65;3.70;;;;;;;8.54;100.00;102302.53;5011516;28;20487;-79
2022/05/01 06:32:42;;;;;;;9.95;3.40;;;;;;;8.89;100.00;102302.94;5009742;28;20030;-79
2022/05/01 06:35:09;;;;;;;14.52;3.75;;;;;;;9.27;100.00;102306.66;5003790;28;20372;-82
2022/05/01 06:37:36;;;;;;;13.70;3.33;;;;;;;9.35;100.00;102299.13;5007229;28;20046;-78
2022/05/01 06:40:03;;;;;;;9.50;3.22;;;;;;;9.43;100.00;102299.47;5002606;28;20407;-79
2022/05/01 06:42:30;;;;;;;9.52;2.60;;;;;;;9.63;99.92;102289.47;5002679;28;20029;-80
2022/05/01 06:44:56;;;;;;;8.35;3.22;;;;;;;9.62;98.19;102301.72;5016821;28;20873;-78
2022/05/01 06:47:21;;;;;;;6.32;3.00;;;;;;;9.43;98.58;102293.41;4988229;28;20174;-78
2022/05/01 06:49:47;;;;;;;10.38;2.88;;;;;;;9.60;98.47;102292.28;5022556;28;20128;-83
2022/05/01 06:52:12;;;;;;;7.63;2.40;;;;;;;9.59;97.36;102293.22;4993400;28;20442;-79
2022/05/01 06:54:39;;;;;;;9.95;3.00;;;;;;;9.60;99.13;102277.41;5003377;28;20049;-80
2022/05/01 06:57:05;;;;;;;7.78;2.70;;;;;;;9.70;96.38;102281.09;5010196;28;20029;-81
2022/05/01 06:59:31;;;;;;;8.13;2.88;;;;;;;9.58;94.25;102291.56;5043567;28;20087;-81
2022/05/01 07:01:56;;;;;;;7.93;2.75;;;;;;;9.63;95.51;102287.69;5026045;28;20439;-81
2022/05/01 07:04:22;;;;;;;4.70;2.42;;;;;;;9.73;93.47;102295.75;5003574;28;20128;-81
2022/05/01 07:06:48;;;;;;;7.18;2.83;;;;;;;9.93;93.99;102284.78;5002214;28;20796;-81
2022/05/01 07:09:13;;;;;;;7.63;2.47;;;;;;;10.02;92.54;102287.69;5007495;28;20437;-80
2022/05/01 07:11:39;;;;;;;12.65;2.90;;;;;;;10.32;93.98;102290.88;5025654;28;20084;-79
2022/05/01 07:14:04;;;;;;;7.22;2.58;;;;;;;10.37;91.14;102301.03;5008524;28;20033;-81
2022/05/01 07:16:30;;;;;;;6.40;2.72;;;;;;;10.51;92.07;102287.78;5007699;28;20042;-79
2022/05/01 07:18:56;;;;;;;7.05;2.63;;;;;;;10.81;90.68;102293.56;5039256;28;20037;-80
2022/05/01 07:21:22;;;;;;;6.35;2.83;;;;;;;10.98;89.76;102295.00;5018224;28;20039;-81
2022/05/01 07:23:47;;;;;;;8.45;2.75;;;;;;;10.95;88.89;102284.72;5026132;28;20065;-79
2022/05/01 07:26:13;;;;;;;5.40;2.30;;;;;;;10.99;86.55;102299.31;5010005;28;20041;-80
2022/05/01 07:28:39;;;;;;;7.43;2.20;;;;;;;11.02;88.25;102291.19;5007300;28;20067;-83
2022/05/01 07:31:05;;;;;;;10.40;2.80;;;;;;;10.39;88.24;102299.13;5013605;28;20120;-82
2022/05/01 07:33:31;;;;;;;9.70;2.85;;;;;;;10.41;89.87;102307.72;5009322;28;20402;-81
2022/05/01 07:35:58;;;;;;;6.30;2.55;;;;;;;10.45;88.26;102311.84;5020441;28;20034;-78
2022/05/01 07:38:24;;;;;;;6.93;2.70;;;;;;;10.45;87.64;102296.09;5006009;28;20053;-77
2022/05/01 07:40:49;;;;;;;5.07;2.40;;;;;;;10.63;87.93;102309.69;5038348;28;20030;-79
2022/05/01 07:43:15;;;;;;;6.80;1.70;;;;;;;10.69;84.59;102313.66;5009499;28;20571;-79
2022/05/01 07:45:43;;;;;;;6.47;2.22;;;;;;;10.82;86.60;102308.41;5021949;28;20041;-79
2022/05/01 07:48:08;;;;;;;7.45;1.90;;;;;;;10.96;83.76;102302.13;5012108;28;20915;-77
2022/05/01 07:50:34;;;;;;;7.95;1.63;;;;;;;11.33;83.43;102313.44;4994686;28;20026;-78
2022/05/01 07:53:00;;;;;;;6.13;1.50;;;;;;;11.20;78.70;102310.84;5008901;28;20152;-77
2022/05/01 07:55:25;;;;;;;6.57;1.40;;;;;;;11.10;78.72;102305.44;5011130;28;20041;-78
2022/05/01 07:57:51;;;;;;;6.63;1.95;;;;;;;11.40;79.70;102319.91;5018354;28;20076;-78
2022/05/01 08:00:17;;;;;;;6.50;2.00;;;;;;;11.28;77.98;102303.28;5026414;28;20040;-80
2022/05/01 08:05:29;;;;;;;6.18;2.00;;;;;;;11.18;78.72;102306.69;5031553;28;20053;-77
2022/05/01 08:07:57;;;;;;;7.53;2.05;;;;;;;11.35;78.47;102302.81;5028318;28;20087;-78
2022/05/01 08:10:23;;;;;;;7.20;2.20;;;;;;;11.60;81.07;102310.56;5010525;28;20376;-78
2022/05/01 08:12:49;;;;;;;6.40;2.20;;;;;;;11.25;79.36;102319.25;5024254;28;20037;-79
2022/05/01 08:15:20;;;;;;;12.75;2.20;;;;;;;11.10;80.49;102309.88;5010461;28;20037;-81
2022/05/01 08:17:46;;;;;;;6.07;2.55;;;;;;;11.41;80.74;102321.56;4991745;28;20490;-80
2022/05/01 08:23:02;;;;;;;6.57;2.30;;;;;;;11.12;79.71;102309.75;5020363;28;20037;-78
2022/05/01 08:25:28;;;;;;;10.48;2.70;;;;;;;11.42;80.10;102306.66;5013768;28;20503;-76
2022/05/01 08:27:54;;;;;;;4.47;2.08;;;;;;;11.69;77.62;102315.09;5039944;28;20041;-78
2022/05/01 08:30:21;;;;;;;7.18;2.05;;;;;;;12.36;75.47;102324.09;5007899;28;20052;-82
2022/05/01 08:32:47;;;;;;;5.30;1.70;;;;;;;12.78;74.38;102326.91;5007785;28;20080;-79
2022/05/01 08:35:13;;;;;;;8.27;2.25;;;;;;;12.97;70.78;102315.75;5005039;28;20037;-78
2022/05/01 08:37:40;;;;;;;4.80;2.20;;;;;;;13.10;70.20;102320.84;5014135;28;20026;-78
2022/05/01 08:40:10;;;;;;;4.25;2.15;;;;;;;12.92;69.85;102333.72;5008172;28;20432;-79
2022/05/01 08:42:37;;;;;;;2.92;2.22;;;;;;;13.47;71.84;102333.69;4989963;28;20079;-79
2022/05/01 08:45:05;;;;;;;4.70;2.03;;;;;;;13.40;69.27;102317.53;4989247;28;20044;-77
2022/05/01 08:47:47;;;;;;;5.95;2.10;;;;;;;13.48;68.15;102321.34;5005949;28;20041;-77
2022/05/01 08:50:16;;;;;;;7.43;2.30;;;;;;;13.54;68.37;102316.41;5009523;28;20021;-79
2022/05/01 08:52:43;;;;;;;5.65;2.30;;;;;;;13.56;69.31;102309.22;4993900;28;20040;-81
2022/05/01 08:55:10;;;;;;;5.90;2.33;;;;;;;13.57;66.41;102318.78;5001255;28;20073;-78
2022/05/01 08:57:37;;;;;;;4.00;2.35;;;;;;;13.68;63.86;102314.44;5004890;28;20562;-75
2022/05/01 09:00:07;;;;;;;5.75;2.63;;;;;;;13.42;64.33;102309.50;5013323;28;20229;-79
2022/05/01 09:02:34;;;;;;;4.38;2.35;;;;;;;13.18;63.42;102318.41;5025219;28;20064;-79
2022/05/01 09:04:59;;;;;;;4.63;2.15;;;;;;;13.10;62.34;102320.84;5005416;28;20041;-77
2022/05/01 09:07:25;;;;;;;4.78;1.90;;;;;;;13.19;64.55;102319.28;5026204;28;20036;-79
2022/05/01 09:09:51;;;;;;;12.85;2.35;;;;;;;13.33;60.61;102312.91;5024016;28;20087;-80
2022/05/01 09:15:04;;;;;;;4.35;1.67;;;;;;;13.47;58.16;102317.03;5018247;28;20494;-78
2022/05/01 09:17:30;;;;;;;5.10;2.15;;;;;;;13.47;58.75;102315.25;5022237;28;20041;-77
2022/05/01 09:20:09;;;;;;;3.75;1.77;;;;;;;13.78;60.01;102305.59;4990571;28;20142;-79
2022/05/01 09:22:52;;;;;;;3.70;1.83;;;;;;;13.87;59.26;102319.00;5021220;28;20404;-80
2022/05/01 09:25:22;;;;;;;5.03;1.63;;;;;;;14.01;56.03;102308.09;5009128;28;20053;-78
2022/05/01 09:27:49;;;;;;;4.03;1.70;;;;;;;13.97;55.19;102307.50;5006856;28;20148;-79
2022/05/01 09:30:18;;;;;;;4.22;1.75;;;;;;;14.15;55.71;102309.56;5006501;28;20111;-79
2022/05/01 09:32:44;;;;;;;4.57;1.67;;;;;;;13.97;55.81;102311.94;5022678;28;20107;-78
2022/05/01 09:35:16;;;;;;;3.58;1.48;;;;;;;14.00;55.13;102312.53;5006693;28;20116;-79
2022/05/01 09:37:42;;;;;;;3.17;1.23;;;;;;;14.02;55.67;102307.13;5011046;28;20676;-78
2022/05/01 09:40:09;;;;;;;6.57;1.65;;;;;;;13.97;56.82;102311.94;5011664;28;20044;-76
2022/05/01 09:42:35;;;;;;;4.90;1.25;;;;;;;13.66;54.07;102308.44;5048663;28;20029;-78
2022/05/01 09:45:06;;;;;;;4.95;1.50;;;;;;;13.70;54.47;102307.22;5015556;28;20406;-77
2022/05/01 09:47:50;;;;;;;5.22;0.95;;;;;;;13.82;55.23;102304.41;5026876;28;20049;-79
2022/05/01 09:50:16;;;;;;;2.85;0.80;;;;;;;13.70;53.77;102296.69;5031291;28;20041;-79
2022/05/01 09:53:01;;;;;;;2.88;1.05;;;;;;;13.89;54.82;102304.69;5017887;28;20041;-79
2022/05/01 09:55:28;;;;;;;6.30;1.23;;;;;;;13.84;54.79;102296.31;5022539;28;20504;-78
2022/05/01 09:58:03;;;;;;;2.80;1.13;;;;;;;13.87;52.56;102306.63;5026914;28;20128;-78
2022/05/01 10:00:37;;;;;;;0.90;0.90;;;;;;;13.96;49.78;102303.22;5018856;28;20041;-79
2022/05/01 10:03:27;;;;;;;2.05;0.82;;;;;;;13.58;49.25;102302.00;5029620;28;20053;-79
2022/05/01 10:05:55;;;;;;;2.78;0.90;;;;;;;13.34;50.47;102304.88;5021528;28;20034;-79
2022/05/01 10:08:22;;;;;;;3.25;1.00;;;;;;;13.19;50.04;102306.94;5024170;28;20075;-78
2022/05/01 10:10:51;;;;;;;2.38;1.00;;;;;;;12.99;51.92;102291.91;5014092;28;20075;-78
2022/05/01 10:13:18;;;;;;;3.33;1.10;;;;;;;13.31;51.90;102294.56;5004981;28;20048;-78
2022/05/01 10:15:45;;;;;;;3.75;0.88;;;;;;;13.98;49.48;102292.53;5005213;28;20095;-77
2022/05/01 10:18:13;;;;;;;2.10;0.70;;;;;;;14.71;48.73;102298.53;5010417;28;20041;-78
2022/05/01 10:20:41;;;;;;;3.20;0.80;;;;;;;14.95;46.33;102286.72;5027579;28;20049;-77
2022/05/01 10:23:07;;;;;;;0.88;0.60;;;;;;;15.38;42.64;102301.34;5029934;28;20051;-77
2022/05/01 10:25:37;;;;;;;1.33;0.70;;;;;;;14.93;44.97;102299.25;5033101;28;20040;-76
2022/05/01 10:28:26;;;;;;;0.98;0.50;;;;;;;14.58;44.66;102298.78;5023231;28;20049;-78
2022/05/01 10:34:06;;;;;;;3.60;0.73;;;;;;;13.75;46.77;102289.19;5026091;28;20490;-83
2022/05/01 10:36:47;;;;;;;1.40;0.55;;;;;;;13.52;48.65;102289.31;5036631;28;20048;-78
2022/05/01 10:39:15;;;;;;;2.65;0.70;;;;;;;13.30;45.53;102276.22;5009195;28;20026;-79
2022/05/01 10:41:42;;;;;;;2.47;0.82;;;;;;;13.31;45.53;102286.66;5010429;28;20502;-79
2022/05/01 10:44:25;;;;;;;2.38;0.70;;;;;;;13.27;45.73;102281.75;5008961;28;20035;-81
2022/05/01 10:46:53;;;;;;;1.48;0.80;;;;;;;13.12;48.57;102281.22;5003572;28;20037;-80
2022/05/01 10:49:33;;;;;;;1.65;0.63;;;;;;;13.16;48.52;102270.28;5022594;28;20108;-79
2022/05/01 10:52:22;;;;;;;2.00;0.70;;;;;;;13.34;47.81;102280.34;5041273;28;20040;-79
2022/05/01 10:55:01;;;;;;;1.20;0.52;;;;;;;13.25;50.38;102281.88;5022257;28;20091;-78
2022/05/01 10:57:27;;;;;;;1.35;0.70;;;;;;;13.14;49.22;102266.94;5028683;28;20067;-79
2022/05/01 11:00:12;;;;;;;2.20;0.68;;;;;;;13.24;50.51;102278.41;5021478;28;20080;-80
2022/05/01 11:02:58;;;;;;;3.17;1.10;;;;;;;12.98;49.44;102272.66;5010384;28;20049;-80
2022/05/01 11:05:54;;;;;;;1.73;1.20;;;;;;;12.94;50.13;102286.19;4984894;28;20050;-79
2022/05/01 11:08:29;;;;;;;2.20;1.10;;;;;;;13.04;49.97;102273.94;4989399;28;20566;-78
2022/05/01 11:10:59;;;;;;;5.75;1.38;;;;;;;13.17;51.58;102276.41;4985361;28;20071;-84
2022/05/01 11:13:41;;;;;;;2.25;0.70;;;;;;;13.49;50.57;102276.41;5003653;28;20030;-80
2022/05/01 11:16:10;;;;;;;1.70;0.82;;;;;;;13.59;50.93;102274.66;4979344;28;20047;-78
2022/05/01 11:18:53;;;;;;;1.58;0.80;;;;;;;13.53;49.78;102259.38;5007913;28;20099;-79
2022/05/01 11:21:22;;;;;;;4.05;1.10;;;;;;;13.55;51.04;102269.78;5003700;28;20037;-77
2022/05/01 11:24:08;;;;;;;1.70;0.80;;;;;;;13.78;51.78;102273.94;5005417;28;20093;-78
2022/05/01 11:26:34;;;;;;;1.85;0.82;;;;;;;13.94;49.82;102270.03;4980707;28;20042;-79
2022/05/01 11:29:13;;;;;;;2.30;0.93;;;;;;;13.92;48.99;102270.16;4992324;28;20087;-81
2022/05/01 11:31:46;;;;;;;2.25;1.00;;;;;;;13.97;51.18;102273.22;5001460;28;20030;-79
2022/05/01 11:34:22;;;;;;;;;;;;;;;13.87;49.17;102268.88;4998023;28;20042;-80
2022/05/01 11:37:01;;;;;;;3.03;1.00;;;;;;;13.83;48.91;102271.75;4991021;28;20012;-80
2022/05/01 11:39:45;;;;;;;3.03;0.80;;;;;;;13.89;48.46;102274.84;4988472;28;20037;-80
2022/05/01 11:42:26;;;;;;;3.15;1.20;;;;;;;13.93;49.80;102276.25;4988033;28;20042;-80
2022/05/01 11:44:54;;;;;;;3.75;1.15;;;;;;;14.08;48.89;102271.47;5008807;28;20033;-81
2022/05/01 11:47:21;;;;;;;1.60;0.88;;;;;;;13.96;47.40;102274.19;4995988;28;20042;-80
2022/05/01 11:49:47;;;;;;;3.47;0.90;;;;;;;14.07;48.16;102267.16;4987392;28;20038;-81
2022/05/01 11:52:14;;;;;;;2.33;0.90;;;;;;;14.16;46.76;102271.63;4991066;28;20442;-79